• Join FlightAware (Why Join?)
  • Login
  • US Flag 
08:37AM EDT


 

Airport Tracker/Info


-or-


 

Live Flight TrackerFlight Track Log ✈ EJA122 ✈ 30-Dec-2013 ✈ KROA - KCOU

Flight Track Log - Related Links

Times and Time Zones

All times are in EST time to prevent confusion due to time zone crossing. See the EJA122 flight status page for this flight to view local times or setup timezone preferences in your user account.

Time Position Orientation Groundspeed Altitude Reporting Facility
EST Latitude Longitude Course Direction KTS MPH feet Rate Location/Type
03:09PM 37.3253 -80.0803 277° West 191 220 5,500  Level Indianapolis Center
03:10PM 37.3369 -80.1642 280° West 236 272 9,300 3,660 Climbing Indianapolis Center
03:11PM 37.3525 -80.2603 282° West 241 277 13,100 3,060 Climbing Indianapolis Center
03:12PM 37.3672 -80.3444 282° West 249 287 15,600 2,280 Climbing Indianapolis Center
03:13PM 37.3817 -80.4333 282° West 261 300 17,800 2,100 Climbing Indianapolis Center
03:14PM 37.4836 -80.7757 277° West  Level Estimated
03:14PM 37.3972 -80.5458 280° West 262 302 20,400  Level Washington Center
03:15PM 37.4122 -80.6331 282° West 257 296 22,400 1,380 Climbing Washington Center
03:16PM 37.4272 -80.7117 284° West 265 305 23,000 300 Climbing Indianapolis Center
03:17PM 37.4419 -80.8131 280° West 294 338 23,000 120 Level Indianapolis Center
03:18PM 37.4606 -80.9258 282° West 329 379 23,300 960 Climbing Indianapolis Center
03:19PM 37.4825 -81.0561 282° West 326 375 25,000 1,500 Climbing Indianapolis Center
03:20PM 37.4981 -81.1553 281° West 302 348 26,400 1,320 Climbing Indianapolis Center
03:21PM 37.5119 -81.2478 281° West 281 323 27,800 1,260 Climbing Indianapolis Center
03:22PM 37.5258 -81.3361 281° West 267 307 29,000 1,020 Climbing Indianapolis Center
03:23PM 37.5225 -81.4383 268° West 250 288 30,000 480 Climbing Indianapolis Center
03:24PM 37.5150 -81.5211 264° West 251 289 30,000 360 Level Indianapolis Center
03:25PM 37.5047 -81.6117 262° West 260 299 30,800 900 Climbing Indianapolis Center
03:26PM 37.5008 -81.7133 267° West 252 290 31,900 960 Climbing Indianapolis Center
03:27PM 37.5161 -81.8019 282° West 255 293 32,900 960 Climbing Indianapolis Center
03:28PM 37.5311 -81.8875 282° West 251 289 33,900 900 Climbing Indianapolis Center
03:30PM 37.5458 -81.9708 283° West 246 283 34,800 900 Climbing Indianapolis Center
03:31PM 37.5586 -82.0517 281° West 238 274 35,800 540 Climbing Indianapolis Center
03:32PM 37.5719 -82.1314 282° West 234 269 36,000 60 Climbing Indianapolis Center
03:33PM 37.5889 -82.2325 282° West 249 287 36,000  Level Indianapolis Center
03:34PM 37.6044 -82.3242 282° West 264 304 36,000  Level Indianapolis Center
03:35PM 37.6206 -82.4189 282° West 273 314 36,000  Level Indianapolis Center
03:36PM 37.6367 -82.5181 282° West 284 327 36,000  Level Indianapolis Center
03:37PM 37.6542 -82.6189 282° West 293 337 36,000  Level Indianapolis Center
03:38PM 37.6714 -82.7194 282° West 294 338 36,000  Level Indianapolis Center
03:39PM 37.6908 -82.8386 282° West 297 342 36,000  Level Indianapolis Center
03:40PM 37.7075 -82.9425 281° West 301 346 36,000  Level Indianapolis Center
03:41PM 37.7239 -83.0456 281° West 301 346 36,000  Level Indianapolis Center
03:42PM 37.7400 -83.1472 281° West 298 343 36,000  Level Indianapolis Center
03:43PM 37.7569 -83.2511 282° West 299 344 36,000  Level Indianapolis Center
03:44PM 37.7725 -83.3550 281° West 301 346 36,000  Level Indianapolis Center
03:45PM 37.7892 -83.4583 282° West 302 348 36,000  Level Indianapolis Center
03:46PM 37.8083 -83.5794 281° West 301 346 36,000  Level Indianapolis Center
03:47PM 37.8250 -83.6814 282° West 298 343 36,000  Level Indianapolis Center
03:48PM 37.8400 -83.7850 280° West 298 343 36,000  Level Indianapolis Center
03:49PM 37.8567 -83.8883 282° West 299 344 36,000  Level Indianapolis Center
03:50PM 37.8719 -83.9903 281° West 298 343 36,000  Level Indianapolis Center
03:51PM 37.8878 -84.0947 281° West 300 345 36,000  Level Indianapolis Center
03:52PM 37.9058 -84.2144 281° West 297 342 36,000  Level Indianapolis Center
03:53PM 37.9214 -84.3183 281° West 300 345 36,000  Level Indianapolis Center
03:54PM 37.9367 -84.4214 281° West 298 343 36,000  Level Indianapolis Center
03:55PM 37.9519 -84.5261 281° West 302 348 36,000  Level Indianapolis Center
03:56PM 37.9678 -84.6319 281° West 306 352 36,000  Level Indianapolis Center
03:57PM 37.9822 -84.7386 280° West 307 353 36,000  Level Indianapolis Center
03:58PM 37.9978 -84.8450 281° West 308 354 36,000  Level Indianapolis Center
03:59PM 38.0169 -84.9714 281° West 311 358 36,000  Level Indianapolis Center
04:00PM 38.0322 -85.0803 280° West 315 362 36,000  Level Indianapolis Center
04:01PM 38.0483 -85.1894 281° West 316 364 36,000  Level Indianapolis Center
04:02PM 38.0636 -85.2972 280° West 318 366 36,000  Level Indianapolis Center
04:03PM 38.0778 -85.4083 279° West 318 366 36,000  Level Indianapolis Center
04:04PM 38.0947 -85.5183 281° West 318 366 36,000  Level Indianapolis Center
04:05PM 38.1133 -85.6292 282° West 320 368 36,000  Level Indianapolis Center
04:07PM 38.1336 -85.7422 283° West 325 374 36,000  Level Indianapolis Center
04:08PM 38.1564 -85.8783 282° West 329 379 36,000  Level Indianapolis Center
04:09PM 38.1764 -85.9950 282° West 335 386 36,000  Level Indianapolis Center
04:10PM 38.1967 -86.1094 283° West 332 382 36,000  Level Indianapolis Center
04:11PM 38.2167 -86.2269 282° West 337 388 36,000  Level Indianapolis Center
04:12PM 38.2372 -86.3447 283° West 339 390 36,000  Level Indianapolis Center
04:13PM 38.2567 -86.4606 282° West 335 386 36,000  Level Indianapolis Center
04:14PM 38.2761 -86.5778 282° West 336 387 36,000  Level Indianapolis Center
04:15PM 38.2958 -86.6950 282° West 338 389 36,000  Level Indianapolis Center
04:16PM 38.3119 -86.8106 280° West 333 383 36,000  Level Indianapolis Center
04:17PM 38.3256 -86.9292 278° West 336 387 36,000  Level Indianapolis Center
04:18PM 38.3397 -87.0517 278° West 332 382 36,000  Level Indianapolis Center
04:19PM 38.3528 -87.1686 278° West 331 381 36,000  Level Indianapolis Center
04:20PM 38.3678 -87.2931 279° West 336 387 36,000  Level Indianapolis Center
04:21PM 38.3808 -87.4114 278° West 337 388 36,000  Level Indianapolis Center
04:22PM 38.3964 -87.5517 278° West 333 383 36,000  Level Indianapolis Center
04:23PM 38.4092 -87.6658 278° West 327 376 36,000  Level Indianapolis Center
04:24PM 38.4211 -87.7772 278° West 319 367 36,000  Level Indianapolis Center
04:25PM 38.4333 -87.8881 278° West 315 362 36,000  Level Indianapolis Center
04:26PM 38.4444 -87.9978 277° West 313 360 36,000  Level Indianapolis Center
04:27PM 38.4564 -88.1058 278° West 308 354 36,000  Level Indianapolis Center
04:28PM 38.4681 -88.2144 278° West 309 356 36,000  Level Kansas City Center
04:29PM 38.4794 -88.3214 278° West 306 352 36,000  Level Kansas City Center
04:30PM 38.4903 -88.4289 277° West 304 350 36,000  Level Kansas City Center
04:31PM 38.5044 -88.5578 278° West 308 354 36,000  Level Kansas City Center
04:32PM 38.5144 -88.6647 277° West 305 351 36,000  Level Kansas City Center
04:33PM 38.5256 -88.7828 277° West 310 357 36,000  Level Kansas City Center
04:34PM 38.5367 -88.8917 277° West 311 358 36,000  Level Kansas City Center
04:35PM 38.5472 -89.0017 277° West 313 360 36,000  Level Kansas City Center
04:36PM 38.5592 -89.1222 277° West 318 366 36,000 -120 Level Kansas City Center
04:37PM 38.5703 -89.2344 277° West 319 367 35,800 -480 Descending Kansas City Center
04:38PM 38.5811 -89.3478 277° West 327 376 35,100 -780 Descending Kansas City Center
04:39PM 38.5914 -89.4642 276° West 331 381 34,300 -1,020 Descending Kansas City Center
04:40PM 38.6036 -89.5825 278° West 336 387 33,000 -1,440 Descending Kansas City Center
04:42PM 38.6153 -89.7025 277° West 339 390 31,400 -1,680 Descending Kansas City Center
04:43PM 38.6286 -89.8500 277° West 347 399 29,600 -1,620 Descending Kansas City Center
04:44PM 38.6400 -89.9794 276° West 361 415 28,100 -1,560 Descending Kansas City Center
04:45PM 38.6517 -90.1200 276° West 367 422 26,400 -1,620 Descending Kansas City Center
04:46PM 38.6631 -90.2575 276° West 381 438 24,800 -1,200 Descending Kansas City Center
04:47PM 38.6758 -90.3892 277° West 373 429 24,000 -600 Descending Kansas City Center
04:48PM 38.6881 -90.5214 277° West 371 427 23,600 -1,260 Descending Kansas City Center
04:49PM 38.6961 -90.6492 275° West 366 421 21,500 -1,980 Descending Kansas City Center
04:50PM 38.7067 -90.7808 276° West 369 425 19,600 -1,800 Descending Kansas City Center
04:51PM 38.7175 -90.9094 276° West 369 425 17,900 -1,740 Descending Kansas City Center
04:52PM 38.7297 -91.0567 276° West 358 412 16,100 -960 Descending Kansas City Center
04:53PM 38.7414 -91.1753 277° West 342 394 16,000 -60 Descending Kansas City Center
04:54PM 38.7517 -91.2992 276° West 348 400 16,000 -900 Level Kansas City Center
04:55PM 38.7608 -91.4192 276° West 344 396 14,200 -1,680 Descending Kansas City Center
04:57PM 38.7781 -91.6461 276° West 320 368 10,900 -1,620 Descending Kansas City Center
04:58PM 38.7872 -91.7575 276° West 253 291 9,300 -1,440 Descending Kansas City Center
04:59PM 38.7981 -91.8397 280° West 235 270 8,000 -1,620 Descending Kansas City Center
05:00PM 38.8094 -91.9225 280° West 236 272 6,000 -2,040 Descending Kansas City Center
05:01PM 38.8194 -91.9969 280° West 220 253 3,900 -1,440 Descending Kansas City Center
05:02PM 38.8306 -92.0650 282° West 209 241 3,100 -600 Descending Kansas City Center
05:03PM 38.8400 -92.1242 282° West 191 220 2,700 -540 Descending Kansas City Center
05:04PM 38.8444 -92.1758 276° West 172 198 2,100 -720 Descending Kansas City Center
05:05PM 38.8256 -92.2125 237° Southwest 159 183 1,300 -780 Descending Kansas City Center
05:07PM 38.8167 -92.2167 288° West  Level FlightAware Approximate
05:14PM 38.8181 -92.2196 288° West  Level Estimated